Aeroporto :
LOGIN :

Iscrizione | Disclaimer

   EN    FR    IT 

 










Sommario :    VFR   VFR Marginale   IFR   IFR Intensivo   IFR Molto Intensivo
Visibilità : 
Base nubi : 
>= 8 km
>= 3000ft
5 / 8 km
1000 / 3000 ft
1500m / 5 km
500 / 1000 ft
800 / 1500m
200 / 500 ft
< 800m
< 200 ft
Simboli :   Temporali  Nebbia  Neve Forte  Precipitazioni Forti  Vento > 20 kt
SIGMETs :   Varie  Temporali  Ghiacco  Turbolenza  Onda orograficha  Ceneri Vulcaniche






- Altitudine del aeroporto : 231 ft
- Codice IATA : WTN


EGXW - RAF Waddington

ULTIMO METAR :
  • 200350Z AUTO 13008KT 2300 BR FEW048/// 02/01 Q1014

METARs OBSOLETI :
  • 200250Z AUTO 14010KT 5000 BR OVC048/// 03/02 Q1014
  • 200150Z AUTO 14011KT 5000 BR OVC048/// 03/02 Q1014

TAF TAF EGXW
Valido dal 19 a 21 ore il 20 a 15 ore UTC


191938Z 1921/2015 14007KT 5000 HZ SCT040
PROB40 1921/2010 2500 BR
PROB30 2000/2010 0400 FZFG OVC000
BECMG 2010/2013 9999 NSW



MetMap, La meteo Aeronautica in un colpo d'occhio ! - Copyright ORBIFLY Dicembre 2007 - Disclaimer

ORBIFLY MET'MAP TEAM :

Programmazione e sviluppo : Alexandra Zaïnal
Concezione e sviluppo : Baudouin d'Aumeries
Co-Programmazione e sviluppo : Marc-Olivier Méhu
Supporto tecnico e logistico : Manuel Goepfert
Aiuto per la traduzione : Arnaldo La Scala

Contatto : metmap@orbifly.com




FONTI E CREDITI :

   NOAA